Time;durP1;ratioP1;P1;durP2;ratioP2;P2;SDS_P1;SDS_P2;PMS_P1;PMS_P2;Temp;Humidity;BMP_temperature;BMP_pressure;BME280_temperature;BME280_humidity;BME280_pressure;Samples;Min_cycle;Max_cycle;Signal;HPM_P1;HPM_P2
2022/10/03 00:00:27;;;;;;;16.65;4.38;;;15.50;59.90;;;;;;4981109;28;20426;-40
2022/10/03 00:03:34;;;;;;;14.48;4.20;;;15.50;59.90;;;;;;4984909;28;20050;-44
2022/10/03 00:06:11;;;;;;;13.40;3.33;;;15.40;59.80;;;;;;4982793;28;20054;-42
2022/10/03 00:09:07;;;;;;;11.90;2.88;;;15.40;59.80;;;;;;4982719;28;20053;-43
2022/10/03 00:11:45;;;;;;;13.65;3.30;;;15.40;59.90;;;;;;4981597;28;20054;-47
2022/10/03 00:14:21;;;;;;;9.52;3.28;;;15.30;59.90;;;;;;4983534;28;20391;-41
2022/10/03 00:16:59;;;;;;;10.52;3.08;;;15.30;59.90;;;;;;4980525;28;20069;-42
2022/10/03 00:19:35;;;;;;;14.00;3.38;;;15.30;59.90;;;;;;4983615;28;20053;-43
2022/10/03 00:22:17;;;;;;;10.85;3.58;;;15.30;59.90;;;;;;4985072;28;20066;-45
2022/10/03 00:24:58;;;;;;;15.50;3.45;;;15.20;59.90;;;;;;4981842;28;20066;-43
2022/10/03 00:27:32;;;;;;;14.63;3.80;;;15.20;59.90;;;;;;4983809;28;20069;-44
2022/10/03 00:30:11;;;;;;;12.93;3.15;;;15.20;59.90;;;;;;4981834;28;20054;-44
2022/10/03 00:32:58;;;;;;;13.35;3.65;;;15.20;59.90;;;;;;4980486;28;20054;-45
2022/10/03 00:35:42;;;;;;;11.00;3.28;;;15.20;59.90;;;;;;4982006;28;20058;-40
2022/10/03 00:38:18;;;;;;;;;;;15.10;59.80;;;;;;4983568;28;20545;-44
2022/10/03 00:41:21;;;;;;;9.43;3.35;;;15.20;60.00;;;;;;4982637;28;19922;-42
2022/10/03 00:44:45;;;;;;;18.23;4.93;;;15.10;59.70;;;;;;4983419;28;20054;-41
2022/10/03 00:47:40;;;;;;;15.55;3.55;;;15.10;59.70;;;;;;4977515;28;20050;-43
2022/10/03 00:50:36;;;;;;;16.50;3.27;;;15.10;59.70;;;;;;4982072;28;20047;-42
2022/10/03 00:53:22;;;;;;;14.77;4.05;;;15.00;59.70;;;;;;4982207;28;20505;-43
2022/10/03 00:56:02;;;;;;;13.98;3.05;;;15.00;59.80;;;;;;4981402;28;20391;-46
2022/10/03 00:58:45;;;;;;;11.07;3.20;;;15.00;59.90;;;;;;4982589;28;20050;-42
2022/10/03 01:01:33;;;;;;;11.27;3.28;;;14.90;59.90;;;;;;4988384;28;20073;-46
2022/10/03 01:04:20;;;;;;;12.15;3.63;;;14.90;59.90;;;;;;5000018;28;20058;-51
2022/10/03 01:07:04;;;;;;;21.85;4.93;;;14.90;60.00;;;;;;4998391;28;20066;-47
2022/10/03 01:09:46;;;;;;;14.07;4.07;;;14.90;60.10;;;;;;4999816;28;20051;-49
2022/10/03 01:12:30;;;;;;;11.38;3.00;;;14.90;60.10;;;;;;4996990;28;20402;-48
2022/10/03 01:15:10;;;;;;;22.83;6.70;;;14.80;60.00;;;;;;4999503;28;20054;-48
2022/10/03 01:17:48;;;;;;;21.40;5.22;;;14.90;60.10;;;;;;4994999;28;20065;-51
2022/10/03 01:20:26;;;;;;;11.43;3.78;;;14.80;60.10;;;;;;5000499;28;20057;-50
2022/10/03 01:23:37;;;;;;;13.77;3.60;;;14.80;60.20;;;;;;5000217;28;20058;-49
2022/10/03 01:26:21;;;;;;;15.68;3.65;;;14.80;60.30;;;;;;4953527;28;20054;-52
2022/10/03 01:31:49;;;;;;;11.95;3.33;;;14.70;60.20;;;;;;4997791;28;20074;-50
2022/10/03 01:34:26;;;;;;;15.60;3.88;;;14.70;60.20;;;;;;4999996;28;20069;-50
2022/10/03 01:37:04;;;;;;;11.60;3.28;;;14.70;60.40;;;;;;4995812;28;20057;-51
2022/10/03 01:39:38;;;;;;;13.55;3.25;;;14.70;60.40;;;;;;4997814;28;20047;-53
2022/10/03 01:42:12;;;;;;;19.05;3.95;;;14.70;60.50;;;;;;4999547;28;20057;-46
2022/10/03 01:44:55;;;;;;;18.75;3.78;;;14.70;60.60;;;;;;4999736;28;20054;-52
2022/10/03 01:47:31;;;;;;;11.70;3.25;;;14.70;60.60;;;;;;4996628;28;20054;-49
2022/10/03 01:50:04;;;;;;;27.33;5.55;;;14.70;60.60;;;;;;5000459;28;20050;-50
2022/10/03 01:52:41;;;;;;;11.73;3.50;;;14.70;60.70;;;;;;5000643;28;20100;-47
2022/10/03 01:55:18;;;;;;;13.35;2.85;;;14.60;60.60;;;;;;4999902;28;20054;-47
2022/10/03 01:57:54;;;;;;;14.85;3.63;;;14.60;60.60;;;;;;4997943;28;20054;-52
2022/10/03 02:00:25;;;;;;;14.68;3.30;;;14.60;60.60;;;;;;4997287;28;21302;-47
2022/10/03 02:03:02;;;;;;;10.63;3.42;;;14.60;60.60;;;;;;4985395;28;20054;-48
2022/10/03 02:05:41;;;;;;;13.48;3.40;;;14.60;60.60;;;;;;4980913;28;20050;-44
2022/10/03 02:08:23;;;;;;;13.43;4.05;;;14.60;60.60;;;;;;4980601;28;20058;-46
2022/10/03 02:10:57;;;;;;;18.17;3.65;;;14.60;60.60;;;;;;4980468;28;20046;-45
2022/10/03 02:13:29;;;;;;;;;;;14.60;60.60;;;;;;4982094;28;20050;-43
2022/10/03 02:16:06;;;;;;;9.48;2.97;;;14.60;60.70;;;;;;4979136;28;19925;-43
2022/10/03 02:18:45;;;;;;;14.50;3.80;;;14.60;60.40;;;;;;4987515;28;20057;-50
2022/10/03 02:21:17;;;;;;;14.88;3.08;;;14.60;60.50;;;;;;5004139;28;20054;-50
2022/10/03 02:23:45;;;;;;;16.98;4.07;;;14.60;60.70;;;;;;5003760;28;20062;-52
2022/10/03 02:26:38;;;;;;;10.85;3.30;;;14.60;60.90;;;;;;5002020;28;20046;-51
2022/10/03 02:29:29;;;;;;;11.10;3.85;;;14.60;61.10;;;;;;5004661;28;20051;-52
2022/10/03 02:32:28;;;;;;;12.15;3.60;;;14.60;61.30;;;;;;5002431;28;20057;-51
2022/10/03 02:35:45;;;;;;;20.25;3.72;;;14.60;61.40;;;;;;5004420;28;20058;-47
2022/10/03 02:38:35;;;;;;;8.55;3.13;;;14.60;61.50;;;;;;4995200;28;20050;-52
2022/10/03 02:41:41;;;;;;;22.25;4.38;;;14.60;61.40;;;;;;4978391;28;20058;-52
2022/10/03 02:44:31;;;;;;;18.08;4.20;;;14.60;61.60;;;;;;4999899;28;20080;-49
2022/10/03 02:47:22;;;;;;;12.77;3.80;;;14.60;61.60;;;;;;4997399;28;20516;-47
2022/10/03 02:50:26;;;;;;;13.65;4.03;;;14.60;61.60;;;;;;4999064;28;20057;-49
2022/10/03 02:53:27;;;;;;;16.52;3.90;;;14.50;61.70;;;;;;4997972;28;20058;-50
2022/10/03 02:56:32;;;;;;;18.30;4.72;;;14.50;61.70;;;;;;4997939;28;20054;-47
2022/10/03 02:59:33;;;;;;;12.68;3.45;;;14.50;61.70;;;;;;4998789;28;20059;-47
2022/10/03 03:02:33;;;;;;;12.23;3.95;;;14.50;61.70;;;;;;4999025;28;20069;-50
2022/10/03 03:05:33;;;;;;;16.50;4.00;;;14.50;61.80;;;;;;4998902;28;20510;-51
2022/10/03 03:08:28;;;;;;;13.85;3.60;;;14.50;61.70;;;;;;4999603;28;20065;-50
2022/10/03 03:11:05;;;;;;;;;;;14.50;61.80;;;;;;4998544;28;20054;-51
2022/10/03 03:14:08;;;;;;;8.48;3.38;;;14.60;61.80;;;;;;4999927;28;19925;-52
2022/10/03 03:16:51;;;;;;;15.73;3.90;;;14.60;61.70;;;;;;4979280;28;20065;-46
2022/10/03 03:19:46;;;;;;;18.58;4.57;;;14.60;61.70;;;;;;4997440;28;20057;-46
2022/10/03 03:22:31;;;;;;;18.45;3.55;;;14.50;61.70;;;;;;4996587;28;20066;-52
2022/10/03 03:25:21;;;;;;;11.32;3.83;;;14.50;61.80;;;;;;4997270;28;20054;-50
2022/10/03 03:28:00;;;;;;;15.35;4.50;;;14.50;62.00;;;;;;4994110;28;20081;-47
2022/10/03 03:30:37;;;;;;;16.60;3.80;;;14.50;62.00;;;;;;4993354;28;20054;-48
2022/10/03 03:33:14;;;;;;;15.18;3.47;;;14.50;62.10;;;;;;4993508;28;20058;-47
2022/10/03 03:35:54;;;;;;;25.25;4.28;;;14.50;62.10;;;;;;4992821;28;20065;-52
2022/10/03 03:38:31;;;;;;;17.13;3.72;;;14.50;62.00;;;;;;4994486;28;20457;-53
2022/10/03 03:41:21;;;;;;;9.35;2.85;;;14.50;62.10;;;;;;4991991;28;20050;-47
2022/10/03 03:44:21;;;;;;;15.40;3.83;;;14.50;62.20;;;;;;4994022;28;20061;-52
2022/10/03 03:47:05;;;;;;;19.48;3.88;;;14.50;62.40;;;;;;4995034;28;20058;-52
2022/10/03 03:49:42;;;;;;;18.17;4.63;;;14.50;62.40;;;;;;4996670;28;20065;-49
2022/10/03 03:52:29;;;;;;;23.00;4.75;;;14.50;62.50;;;;;;4996078;28;20046;-53
2022/10/03 03:55:22;;;;;;;22.05;5.32;;;14.40;62.40;;;;;;4994141;28;20054;-46
2022/10/03 03:58:17;;;;;;;20.90;4.63;;;14.50;62.40;;;;;;4995786;28;20053;-52
2022/10/03 04:01:12;;;;;;;10.52;3.22;;;14.50;62.30;;;;;;4994096;28;20061;-52
2022/10/03 04:03:53;;;;;;;17.95;4.60;;;14.50;62.30;;;;;;4994976;28;20050;-50
2022/10/03 04:06:33;;;;;;;9.60;2.90;;;14.50;62.10;;;;;;4996194;28;20073;-53
2022/10/03 04:09:16;;;;;;;13.13;3.00;;;14.50;62.10;;;;;;4999026;28;20056;-49
2022/10/03 04:12:08;;;;;;;9.57;2.90;;;14.50;62.10;;;;;;4996611;28;20050;-52
2022/10/03 04:15:02;;;;;;;12.10;3.33;;;14.50;62.10;;;;;;4994723;28;20058;-47
2022/10/03 04:20:53;;;;;;;10.90;3.33;;;14.50;61.90;;;;;;5002645;28;20058;-45
2022/10/03 04:23:56;;;;;;;8.63;2.70;;;14.50;61.90;;;;;;4997933;28;20062;-47
2022/10/03 04:26:38;;;;;;;9.25;2.67;;;14.50;61.80;;;;;;4995504;28;21120;-52
2022/10/03 04:29:37;;;;;;;9.00;2.65;;;14.50;61.70;;;;;;4996441;28;20058;-48
2022/10/03 04:32:16;;;;;;;12.68;3.53;;;14.50;61.70;;;;;;4991775;28;20051;-49
2022/10/03 04:34:55;;;;;;;7.72;2.90;;;14.50;61.60;;;;;;4995505;28;20065;-50
2022/10/03 04:37:31;;;;;;;8.98;2.72;;;14.50;61.60;;;;;;4998784;28;20058;-53
2022/10/03 04:40:17;;;;;;;10.85;2.80;;;14.50;61.60;;;;;;4999631;28;20050;-49
2022/10/03 04:42:54;;;;;;;11.55;3.20;;;14.50;61.60;;;;;;4999999;28;20050;-47
2022/10/03 04:46:05;;;;;;;6.97;2.90;;;14.50;61.60;;;;;;4995120;28;20054;-49
2022/10/03 04:48:39;;;;;;;8.77;3.03;;;14.50;61.70;;;;;;5000366;28;20064;-52
2022/10/03 04:51:16;;;;;;;10.13;3.20;;;14.50;61.50;;;;;;4997381;28;20043;-50
2022/10/03 04:53:53;;;;;;;7.38;2.63;;;14.50;61.50;;;;;;4999979;28;20056;-51
2022/10/03 04:56:40;;;;;;;8.70;2.85;;;14.50;61.50;;;;;;5000381;28;20058;-52
2022/10/03 04:59:30;;;;;;;7.35;2.90;;;14.50;61.40;;;;;;4999492;28;20050;-52
2022/10/03 05:02:03;;;;;;;10.93;3.20;;;14.50;61.20;;;;;;4996806;28;20053;-47
2022/10/03 05:04:38;;;;;;;16.20;3.58;;;14.50;61.00;;;;;;4999226;28;20065;-52
2022/10/03 05:07:16;;;;;;;10.35;3.03;;;14.40;60.80;;;;;;4999950;28;20062;-47
2022/10/03 05:09:52;;;;;;;11.43;3.35;;;14.40;60.80;;;;;;4999470;28;20058;-49
2022/10/03 05:12:29;;;;;;;10.68;3.13;;;14.40;60.90;;;;;;4997834;28;20046;-48
2022/10/03 05:15:11;;;;;;;15.63;3.90;;;14.40;60.90;;;;;;4998999;28;20486;-51
2022/10/03 05:17:48;;;;;;;8.85;2.88;;;14.40;61.00;;;;;;5000043;28;20058;-52
2022/10/03 05:20:35;;;;;;;8.43;3.00;;;14.40;61.10;;;;;;4997683;28;20062;-52
2022/10/03 05:23:14;;;;;;;11.35;3.65;;;14.40;61.20;;;;;;4999415;28;20053;-52
2022/10/03 05:25:53;;;;;;;12.50;3.47;;;14.40;61.30;;;;;;4993644;28;20057;-47
2022/10/03 05:28:34;;;;;;;13.50;3.45;;;14.40;62.20;;;;;;4997900;28;20747;-52
2022/10/03 05:31:14;;;;;;;11.93;3.28;;;14.40;61.40;;;;;;4993148;28;20054;-52
2022/10/03 05:33:47;;;;;;;16.33;4.20;;;14.30;61.40;;;;;;4996694;28;20065;-51
2022/10/03 05:36:28;;;;;;;7.95;2.95;;;14.40;61.50;;;;;;4993427;28;20054;-47
2022/10/03 05:39:23;;;;;;;12.23;3.05;;;14.40;61.60;;;;;;4993203;28;20053;-49
2022/10/03 05:41:53;;;;;;;11.20;3.20;;;14.40;61.60;;;;;;4995456;28;20065;-48
2022/10/03 05:44:28;;;;;;;15.75;3.55;;;14.40;61.60;;;;;;4997532;28;20058;-52
2022/10/03 05:47:03;;;;;;;11.52;3.30;;;14.40;61.50;;;;;;4990274;28;20051;-49
2022/10/03 05:49:57;;;;;;;;;;;14.40;61.60;;;;;;5000009;28;20054;-52
2022/10/03 05:52:46;;;;;;;10.95;3.15;;;14.40;61.60;;;;;;4931648;28;19925;-52
2022/10/03 05:55:36;;;;;;;18.17;4.18;;;14.40;61.30;;;;;;4998364;28;20050;-51
2022/10/03 05:58:33;;;;;;;12.13;3.05;;;14.40;61.30;;;;;;5002906;28;20066;-50
2022/10/03 06:01:24;;;;;;;8.07;3.17;;;14.40;61.30;;;;;;4999386;28;20053;-48
2022/10/03 06:04:18;;;;;;;12.07;3.35;;;14.30;61.30;;;;;;4997771;28;20537;-49
2022/10/03 06:07:00;;;;;;;10.80;3.05;;;14.40;61.40;;;;;;4998384;28;21295;-51
2022/10/03 06:09:53;;;;;;;9.60;3.03;;;14.30;61.30;;;;;;4999676;28;20064;-51
2022/10/03 06:12:27;;;;;;;9.93;2.58;;;14.40;61.50;;;;;;4997756;28;20406;-48
2022/10/03 06:15:25;;;;;;;8.52;3.28;;;14.30;61.50;;;;;;4998700;28;20055;-47
2022/10/03 06:18:10;;;;;;;9.75;2.95;;;14.30;61.60;;;;;;4998739;28;20062;-52
2022/10/03 06:21:04;;;;;;;9.05;2.95;;;14.40;61.70;;;;;;4998605;28;20064;-50
2022/10/03 06:23:51;;;;;;;12.30;3.63;;;14.40;61.80;;;;;;5000909;28;20084;-52
2022/10/03 06:26:45;;;;;;;21.73;6.85;;;14.30;61.80;;;;;;4997741;28;20058;-51
2022/10/03 06:29:41;;;;;;;12.60;5.20;;;14.30;61.90;;;;;;4995612;28;20042;-47
2022/10/03 06:32:31;;;;;;;12.70;3.83;;;14.40;62.00;;;;;;4984415;28;20050;-48
2022/10/03 06:35:35;;;;;;;12.77;3.60;;;14.40;61.90;;;;;;5002178;28;20060;-50
2022/10/03 06:38:44;;;;;;;22.85;3.95;;;14.40;61.70;;;;;;4930629;28;20056;-52
2022/10/03 06:41:41;;;;;;;17.95;3.70;;;14.40;61.60;;;;;;5002333;28;20061;-51
2022/10/03 06:44:22;;;;;;;16.35;3.20;;;14.40;61.60;;;;;;5002934;28;20058;-51
2022/10/03 06:47:11;;;;;;;8.82;3.17;;;14.30;61.60;;;;;;5000362;28;20050;-50
2022/10/03 06:50:05;;;;;;;11.98;3.55;;;14.30;61.70;;;;;;5003178;28;20065;-52
2022/10/03 06:53:08;;;;;;;20.52;4.00;;;14.30;62.00;;;;;;4999151;28;20061;-50
2022/10/03 06:56:05;;;;;;;17.90;4.35;;;14.30;62.40;;;;;;5000664;28;20050;-45
2022/10/03 06:59:04;;;;;;;16.90;4.43;;;14.30;62.60;;;;;;5000312;28;20057;-48
2022/10/03 07:01:54;;;;;;;11.23;4.38;;;14.40;62.80;;;;;;4999223;28;20415;-52
2022/10/03 07:04:48;;;;;;;22.45;4.10;;;14.30;62.90;;;;;;4999818;28;20054;-52
2022/10/03 07:07:48;;;;;;;14.95;5.15;;;14.30;63.00;;;;;;4999948;28;20046;-52
2022/10/03 07:10:29;;;;;;;20.52;5.20;;;14.40;63.10;;;;;;4997964;28;20050;-48
2022/10/03 07:13:23;;;;;;;11.77;4.53;;;14.40;63.00;;;;;;4997479;28;20050;-44
2022/10/03 07:16:17;;;;;;;20.30;5.10;;;14.40;63.80;;;;;;4997446;28;20069;-51
2022/10/03 07:19:25;;;;;;;18.02;5.07;;;14.50;63.20;;;;;;4992687;28;20070;-52
2022/10/03 07:22:24;;;;;;;18.73;4.50;;;14.50;63.10;;;;;;4920412;29;20426;-51
2022/10/03 07:25:24;;;;;;;15.60;4.65;;;14.50;63.10;;;;;;4992839;28;20046;-47
2022/10/03 07:28:08;;;;;;;25.15;5.10;;;14.50;63.00;;;;;;4995843;28;20495;-49
2022/10/03 07:30:55;;;;;;;13.18;4.68;;;14.50;62.80;;;;;;4995777;28;20069;-47
2022/10/03 07:33:49;;;;;;;15.85;5.55;;;14.40;62.80;;;;;;4997086;28;20053;-48
2022/10/03 07:40:01;;;;;;;15.80;5.75;;;14.40;63.40;;;;;;5003749;28;20061;-50
2022/10/03 07:42:50;;;;;;;21.58;6.55;;;14.40;63.70;;;;;;4991825;28;20042;-51
2022/10/03 07:45:44;;;;;;;22.38;6.80;;;14.40;64.10;;;;;;4994403;28;20058;-48
2022/10/03 07:49:02;;;;;;;16.13;7.32;;;14.50;64.60;;;;;;4996121;28;20061;-52
2022/10/03 07:51:44;;;;;;;19.45;6.40;;;14.50;64.20;;;;;;4993058;28;20055;-45
2022/10/03 07:54:47;;;;;;;15.98;6.80;;;14.50;64.40;;;;;;5001292;28;20047;-48
2022/10/03 07:57:36;;;;;;;25.90;7.13;;;14.60;64.80;;;;;;4999712;28;20061;-50
2022/10/03 08:00:12;;;;;;;17.27;6.93;;;14.60;64.80;;;;;;4999273;28;20065;-50
2022/10/03 08:03:11;;;;;;;22.08;7.20;;;14.60;64.80;;;;;;4994181;28;20065;-49
2022/10/03 08:05:55;;;;;;;25.67;8.00;;;14.70;64.90;;;;;;4986240;28;20058;-50
2022/10/03 08:09:03;;;;;;;24.75;8.38;;;14.70;64.90;;;;;;4996344;28;20050;-51
2022/10/03 08:12:05;;;;;;;20.55;7.40;;;14.80;64.80;;;;;;4997260;28;20050;-48
2022/10/03 08:14:44;;;;;;;25.45;9.23;;;14.80;64.60;;;;;;4995149;28;20065;-53
2022/10/03 08:17:41;;;;;;;23.05;7.80;;;14.80;64.30;;;;;;4989379;28;20054;-52
2022/10/03 08:20:38;;;;;;;23.38;7.25;;;14.90;64.50;;;;;;4991799;28;20061;-51
2022/10/03 08:23:27;;;;;;;27.17;8.65;;;14.90;64.70;;;;;;4992432;28;20061;-49
2022/10/03 08:26:10;;;;;;;21.25;7.82;;;14.90;65.00;;;;;;4991610;28;20069;-49
2022/10/03 08:29:02;;;;;;;27.13;8.05;;;15.00;64.80;;;;;;4997053;28;20490;-45
2022/10/03 08:32:04;;;;;;;24.90;8.35;;;15.00;64.60;;;;;;4992400;28;20057;-52
2022/10/03 08:35:19;;;;;;;30.70;8.45;;;15.00;64.80;;;;;;4990623;28;20054;-44
2022/10/03 08:38:22;;;;;;;26.27;7.75;;;15.00;64.50;;;;;;4935621;29;20070;-48
2022/10/03 08:41:34;;;;;;;29.38;8.25;;;15.00;64.70;;;;;;4993606;28;20491;-52
2022/10/03 08:44:27;;;;;;;17.55;5.93;;;15.00;64.30;;;;;;4991937;28;20586;-48
2022/10/03 08:47:34;;;;;;;19.52;7.15;;;15.00;64.40;;;;;;4996512;28;20057;-51
2022/10/03 08:50:38;;;;;;;24.27;6.45;;;15.10;64.70;;;;;;4922913;28;20058;-51
2022/10/03 08:53:47;;;;;;;24.90;8.77;;;15.20;65.20;;;;;;4988532;28;20054;-44
2022/10/03 08:56:17;;;;;;;18.15;7.55;;;15.10;64.50;;;;;;4911473;29;20056;-49
2022/10/03 08:59:13;;;;;;;28.52;7.82;;;15.20;64.60;;;;;;4983410;28;20597;-47
2022/10/03 09:02:25;;;;;;;21.58;7.38;;;15.30;64.70;;;;;;4989626;28;20054;-45
2022/10/03 09:05:21;;;;;;;17.73;6.50;;;15.30;64.50;;;;;;4916753;28;20065;-50
2022/10/03 09:08:30;;;;;;;25.58;7.47;;;15.40;64.80;;;;;;4987390;28;20061;-48
2022/10/03 09:11:29;;;;;;;21.40;5.70;;;15.40;64.20;;;;;;4986255;28;20054;-52
2022/10/03 09:14:31;;;;;;;28.02;6.80;;;15.40;63.40;;;;;;4985808;28;20051;-51
2022/10/03 09:17:08;;;;;;;19.65;5.20;;;15.50;63.00;;;;;;4982437;28;20414;-49
2022/10/03 09:20:08;;;;;;;18.00;7.00;;;15.50;63.30;;;;;;4986056;28;20085;-51
2022/10/03 09:23:17;;;;;;;23.90;5.35;;;15.50;63.00;;;;;;4956891;28;20272;-51
2022/10/03 09:26:19;;;;;;;28.17;6.13;;;15.50;63.10;;;;;;4940183;28;20058;-48
2022/10/03 09:29:21;;;;;;;33.03;6.07;;;15.60;62.50;;;;;;4891478;28;20062;-46
2022/10/03 09:32:25;;;;;;;22.08;5.63;;;15.60;62.30;;;;;;4946705;28;20498;-52
2022/10/03 09:35:21;;;;;;;25.80;5.47;;;15.60;62.00;;;;;;4949159;28;20415;-51
2022/10/03 09:38:14;;;;;;;25.17;4.85;;;15.60;62.30;;;;;;4923730;28;20062;-51
2022/10/03 09:41:27;;;;;;;16.48;4.78;;;15.60;62.20;;;;;;4951887;28;20058;-47
2022/10/03 09:44:34;;;;;;;10.85;3.88;;;15.60;62.50;;;;;;4919745;28;20058;-49
2022/10/03 09:47:31;;;;;;;18.98;5.38;;;15.70;62.70;;;;;;4927098;28;20492;-50
2022/10/03 09:50:50;;;;;;;21.67;5.65;;;15.70;62.50;;;;;;4955956;28;20055;-49
2022/10/03 09:53:56;;;;;;;16.15;4.38;;;15.70;61.80;;;;;;4958791;28;20055;-52
2022/10/03 09:57:03;;;;;;;28.02;5.72;;;15.80;62.00;;;;;;4954298;28;20054;-46
2022/10/03 09:59:55;;;;;;;20.23;5.82;;;15.80;62.40;;;;;;4938210;28;20059;-51
2022/10/03 10:03:03;;;;;;;22.48;5.47;;;15.90;62.30;;;;;;4949679;28;20055;-49
2022/10/03 10:06:06;;;;;;;14.73;4.43;;;16.00;62.30;;;;;;4949471;28;20051;-52
2022/10/03 10:09:04;;;;;;;21.33;5.10;;;16.00;61.70;;;;;;4948739;28;20058;-50
2022/10/03 10:12:07;;;;;;;13.00;3.97;;;16.00;60.80;;;;;;4945603;28;20055;-49
2022/10/03 10:14:58;;;;;;;15.90;3.60;;;16.00;61.10;;;;;;4948748;28;20071;-47
2022/10/03 10:18:03;;;;;;;19.38;3.75;;;16.10;61.60;;;;;;4946398;28;20055;-49
2022/10/03 10:21:00;;;;;;;12.10;3.20;;;16.20;60.40;;;;;;4958859;28;20093;-52
2022/10/03 10:23:46;;;;;;;17.25;3.00;;;16.20;59.80;;;;;;4978240;28;20134;-51
2022/10/03 10:26:52;;;;;;;21.35;3.90;;;16.20;59.60;;;;;;4986309;28;20489;-52
2022/10/03 10:29:44;;;;;;;11.38;2.92;;;16.30;58.70;;;;;;4986491;28;20405;-52
2022/10/03 10:32:55;;;;;;;13.45;3.25;;;16.30;59.00;;;;;;4987056;28;20050;-48
2022/10/03 10:36:13;;;;;;;10.65;2.53;;;16.30;59.30;;;;;;4980871;28;20061;-52
2022/10/03 10:39:21;;;;;;;10.38;2.60;;;16.40;58.60;;;;;;4937264;28;20070;-52
2022/10/03 10:42:33;;;;;;;13.40;2.35;;;16.40;58.30;;;;;;4991059;28;20054;-50
2022/10/03 10:45:24;;;;;;;16.35;3.30;;;16.40;57.80;;;;;;4952536;28;20062;-47
2022/10/03 10:48:17;;;;;;;11.07;2.95;;;16.50;58.20;;;;;;4995620;28;20050;-52
2022/10/03 10:51:21;;;;;;;14.05;2.17;;;16.50;58.60;;;;;;4990707;28;20057;-51
2022/10/03 10:54:20;;;;;;;11.32;2.25;;;16.60;57.20;;;;;;4999734;28;20050;-47
2022/10/03 10:57:17;;;;;;;12.02;2.50;;;16.60;57.70;;;;;;4997020;28;20061;-52
2022/10/03 11:00:16;;;;;;;11.13;2.40;;;16.60;57.30;;;;;;4980496;28;20491;-52
2022/10/03 11:03:20;;;;;;;16.77;2.70;;;16.70;56.70;;;;;;4980436;28;20058;-48
2022/10/03 11:06:29;;;;;;;12.70;2.53;;;16.70;56.60;;;;;;4966125;28;21210;-52
2022/10/03 11:09:34;;;;;;;17.65;3.13;;;16.80;57.10;;;;;;5000231;28;20069;-48
2022/10/03 11:12:50;;;;;;;7.78;1.95;;;16.80;56.80;;;;;;4993986;28;20054;-46
2022/10/03 11:15:57;;;;;;;12.45;2.17;;;16.80;56.50;;;;;;4991195;28;20056;-51
2022/10/03 11:19:20;;;;;;;12.60;1.95;;;16.80;55.50;;;;;;4996610;28;20061;-50
2022/10/03 11:22:25;;;;;;;7.80;1.60;;;16.80;54.60;;;;;;4901354;29;20061;-52
2022/10/03 11:25:30;;;;;;;6.35;1.08;;;16.90;53.90;;;;;;5000416;28;20069;-50
2022/10/03 11:28:42;;;;;;;10.07;1.45;;;16.90;54.60;;;;;;4998439;28;20053;-43
2022/10/03 11:31:42;;;;;;;7.35;1.90;;;17.00;54.00;;;;;;4969673;28;20058;-47
2022/10/03 11:34:57;;;;;;;11.38;1.90;;;17.10;53.90;;;;;;4929492;28;20465;-48
2022/10/03 11:37:39;;;;;;;8.82;1.98;;;17.20;53.30;;;;;;4997519;28;20068;-47
2022/10/03 11:40:23;;;;;;;8.43;1.70;;;17.20;53.50;;;;;;4998757;28;20062;-48
2022/10/03 11:42:58;;;;;;;13.23;1.83;;;17.30;54.00;;;;;;4996265;28;20061;-52
2022/10/03 11:45:32;;;;;;;10.10;1.80;;;17.30;52.80;;;;;;4997123;28;20054;-50
2022/10/03 11:48:25;;;;;;;11.32;1.77;;;17.40;53.30;;;;;;4999554;28;20054;-50
2022/10/03 11:50:56;;;;;;;8.45;2.38;;;17.40;53.30;;;;;;4989878;28;20058;-48
2022/10/03 11:53:43;;;;;;;13.80;1.73;;;17.50;53.20;;;;;;4992550;28;20050;-51
2022/10/03 11:56:37;;;;;;;12.25;2.17;;;17.50;52.90;;;;;;4991970;28;20061;-46
2022/10/03 11:59:34;;;;;;;9.80;1.52;;;17.50;52.50;;;;;;4994580;28;20050;-49
2022/10/03 12:02:13;;;;;;;10.90;1.48;;;17.50;52.60;;;;;;4998036;28;20065;-52
2022/10/03 12:04:51;;;;;;;9.63;1.90;;;17.60;53.10;;;;;;4997217;28;20055;-47
2022/10/03 12:10:37;;;;;;;13.18;2.83;;;17.60;52.60;;;;;;5001597;28;20061;-51
2022/10/03 12:13:09;;;;;;;5.03;1.50;;;17.60;52.20;;;;;;4994042;28;20062;-52
2022/10/03 12:15:40;;;;;;;6.60;1.30;;;17.60;52.40;;;;;;4993611;28;20061;-47
2022/10/03 12:18:13;;;;;;;4.22;1.35;;;17.60;52.80;;;;;;4996801;28;20054;-52
2022/10/03 12:21:04;;;;;;;5.18;1.50;;;17.60;53.20;;;;;;4998001;28;20054;-49
2022/10/03 12:23:50;;;;;;;4.85;1.42;;;17.70;53.20;;;;;;4996166;28;20517;-47
2022/10/03 12:26:28;;;;;;;8.75;1.52;;;17.70;53.20;;;;;;4982802;28;20058;-51
2022/10/03 12:28:57;;;;;;;6.90;1.38;;;17.80;53.30;;;;;;5000078;28;20064;-48
2022/10/03 12:31:32;;;;;;;6.55;1.55;;;17.90;52.80;;;;;;4990714;28;20077;-52
2022/10/03 12:34:08;;;;;;;6.82;1.60;;;17.90;51.20;;;;;;4992936;28;20065;-52
2022/10/03 12:36:48;;;;;;;4.07;1.17;;;17.90;51.80;;;;;;4998247;28;20058;-48
2022/10/03 12:39:30;;;;;;;9.23;1.33;;;17.90;52.00;;;;;;4996246;28;20061;-53
2022/10/03 12:42:13;;;;;;;9.73;1.40;;;18.00;51.90;;;;;;4998319;28;20073;-52
2022/10/03 12:44:51;;;;;;;7.40;1.42;;;18.00;52.10;;;;;;4993423;28;20046;-51
2022/10/03 12:47:29;;;;;;;6.25;1.42;;;18.00;50.00;;;;;;4993298;28;20525;-49
2022/10/03 12:50:03;;;;;;;7.32;1.48;;;18.00;50.10;;;;;;4996443;28;20058;-50
2022/10/03 12:52:37;;;;;;;7.40;1.90;;;18.00;50.40;;;;;;4997974;28;20058;-52
2022/10/03 12:55:23;;;;;;;12.20;1.87;;;18.00;50.20;;;;;;4994613;28;20054;-51
2022/10/03 12:58:00;;;;;;;8.35;2.03;;;18.00;50.70;;;;;;4994583;28;20058;-49
2022/10/03 13:00:35;;;;;;;5.80;1.35;;;18.00;49.80;;;;;;4995313;28;20062;-46
2022/10/03 13:03:33;;;;;;;5.05;1.67;;;18.00;50.90;;;;;;4991831;28;20396;-49
2022/10/03 13:06:36;;;;;;;8.38;2.30;;;18.10;51.20;;;;;;4972821;28;20050;-45
2022/10/03 13:09:21;;;;;;;10.88;1.88;;;18.10;50.50;;;;;;4952731;28;20050;-45
2022/10/03 13:12:05;;;;;;;12.23;2.03;;;18.10;50.20;;;;;;4985830;28;20509;-49
2022/10/03 13:15:03;;;;;;;7.40;1.27;;;18.10;50.10;;;;;;4991249;28;20057;-50
2022/10/03 13:17:38;;;;;;;6.03;1.70;;;18.20;50.70;;;;;;4990217;28;20054;-52
2022/10/03 13:20:16;;;;;;;4.88;1.33;;;18.20;51.10;;;;;;4989592;28;20054;-51
2022/10/03 14:31:14;;;;;;;5.78;1.88;;;18.20;50.70;;;;;;4944202;28;20044;-43
2022/10/03 14:33:46;;;;;;;11.45;2.70;;;18.10;51.00;;;;;;4943786;28;20541;-41
2022/10/03 14:36:27;;;;;;;5.28;1.52;;;18.10;51.30;;;;;;4940045;28;20055;-43
2022/10/03 14:42:39;;;;;;;8.88;1.88;;;18.10;50.90;;;;;;4943274;29;20046;-42
2022/10/03 14:45:09;;;;;;;10.77;2.05;;;18.10;50.90;;;;;;4942159;28;20062;-43
2022/10/03 14:47:42;;;;;;;3.72;1.50;;;18.10;51.00;;;;;;4942919;28;20055;-42
2022/10/03 14:50:15;;;;;;;6.57;2.10;;;18.10;51.10;;;;;;4946171;28;20055;-45
2022/10/03 14:52:45;;;;;;;5.40;1.50;;;18.10;51.30;;;;;;4939027;28;20066;-44
2022/10/03 14:55:17;;;;;;;7.20;2.03;;;18.20;51.40;;;;;;4940784;28;20413;-46
2022/10/03 14:57:49;;;;;;;9.10;1.88;;;18.20;51.70;;;;;;4942690;29;20054;-43
2022/10/03 15:00:34;;;;;;;11.57;1.65;;;18.20;51.90;;;;;;4939091;28;20047;-44
2022/10/03 15:03:21;;;;;;;8.00;2.13;;;18.20;51.50;;;;;;4941899;28;20418;-44
2022/10/03 15:06:27;;;;;;;7.55;1.75;;;18.20;51.80;;;;;;4944974;28;20055;-42
2022/10/03 15:08:57;;;;;;;8.20;2.63;;;18.20;51.20;;;;;;4945635;28;20059;-42
2022/10/03 15:11:28;;;;;;;10.18;1.80;;;18.20;51.10;;;;;;4943138;28;20054;-41
2022/10/03 15:13:57;;;;;;;9.15;2.05;;;18.20;51.00;;;;;;4939817;29;20593;-41
2022/10/03 15:16:25;;;;;;;7.82;1.75;;;18.20;51.30;;;;;;4942410;28;20408;-41
2022/10/03 15:18:57;;;;;;;8.95;1.65;;;18.20;51.20;;;;;;4946007;28;20055;-43
2022/10/03 15:21:26;;;;;;;4.90;1.42;;;18.30;51.30;;;;;;4945226;29;20047;-46
2022/10/03 15:23:58;;;;;;;8.25;2.00;;;18.30;51.70;;;;;;4946703;28;20064;-42
2022/10/03 15:26:29;;;;;;;8.05;1.80;;;18.30;51.90;;;;;;4943431;28;20256;-41
2022/10/03 15:28:59;;;;;;;4.93;1.42;;;18.30;51.20;;;;;;4941444;28;20059;-44
2022/10/03 15:31:34;;;;;;;3.72;1.58;;;18.40;51.10;;;;;;4917777;29;20059;-48
2022/10/03 15:34:06;;;;;;;3.88;1.25;;;18.40;51.50;;;;;;4925535;29;20059;-42
2022/10/03 15:36:36;;;;;;;6.13;1.58;;;18.40;52.00;;;;;;4923579;29;20048;-45
2022/10/03 15:39:06;;;;;;;5.53;1.88;;;18.40;51.60;;;;;;4924937;29;20124;-42
2022/10/03 15:41:36;;;;;;;9.40;1.88;;;18.40;51.60;;;;;;4923545;29;20055;-41
2022/10/03 15:44:14;;;;;;;5.88;1.50;;;18.40;51.30;;;;;;4923186;29;20058;-44
2022/10/03 15:46:45;;;;;;;7.88;1.63;;;18.40;51.50;;;;;;4922177;29;20051;-41
2022/10/03 15:49:21;;;;;;;6.13;1.73;;;18.40;51.80;;;;;;4921363;29;20055;-42
2022/10/03 15:51:48;;;;;;;6.50;1.60;;;18.40;52.20;;;;;;4919033;29;20389;-42